Time;durP1;ratioP1;P1;durP2;ratioP2;P2;SDS_P1;SDS_P2;PMS_P1;PMS_P2;Temp;Humidity;BMP_temperature;BMP_pressure;BME280_temperature;BME280_humidity;BME280_pressure;Samples;Min_cycle;Max_cycle;Signal;HPM_P1;HPM_P2
2023/05/15 00:01:35;;;;;;;14.23;10.75;;;;;;;;;;5064571;28;20234;-52
2023/05/15 00:04:02;;;;;;;12.75;10.55;;;;;;;;;;5061452;28;20246;-53
2023/05/15 00:06:28;;;;;;;13.95;11.15;;;;;;;;;;5074507;28;20235;-53
2023/05/15 00:08:55;;;;;;;10.23;9.23;;;;;;;;;;5060919;28;20243;-52
2023/05/15 00:11:26;;;;;;;11.38;10.07;;;;;;;;;;5060522;28;20219;-53
2023/05/15 00:13:53;;;;;;;10.85;9.63;;;;;;;;;;5059617;28;20239;-53
2023/05/15 00:16:20;;;;;;;12.63;10.27;;;;;;;;;;5060271;28;20232;-52
2023/05/15 00:18:46;;;;;;;14.18;11.23;;;;;;;;;;5073746;28;20227;-53
2023/05/15 00:21:13;;;;;;;11.68;10.48;;;;;;;;;;5067742;28;20703;-53
2023/05/15 00:23:40;;;;;;;11.77;10.57;;;;;;;;;;5067236;28;20315;-53
2023/05/15 00:26:06;;;;;;;13.90;10.43;;;;;;;;;;5074932;28;20329;-53
2023/05/15 00:28:34;;;;;;;12.13;10.75;;;;;;;;;;5062586;28;20235;-53
2023/05/15 00:31:01;;;;;;;14.27;10.95;;;;;;;;;;5066678;28;20235;-53
2023/05/15 00:33:28;;;;;;;12.20;10.35;;;;;;;;;;5065099;28;20725;-53
2023/05/15 00:35:54;;;;;;;11.13;10.02;;;;;;;;;;5075288;28;20231;-53
2023/05/15 00:38:21;;;;;;;13.68;10.25;;;;;;;;;;5055284;28;20224;-54
2023/05/15 00:40:48;;;;;;;11.80;10.63;;;;;;;;;;5065030;28;20227;-53
2023/05/15 00:43:15;;;;;;;17.80;10.35;;;;;;;;;;5068101;28;20231;-53
2023/05/15 00:45:44;;;;;;;12.68;10.65;;;;;;;;;;5067343;28;20321;-53
2023/05/15 00:48:11;;;;;;;11.57;10.48;;;;;;;;;;5068778;28;20235;-53
2023/05/15 00:50:40;;;;;;;14.57;10.82;;;;;;;;;;5065245;28;20267;-53
2023/05/15 00:53:07;;;;;;;13.98;10.85;;;;;;;;;;5070346;28;20238;-53
2023/05/15 00:55:34;;;;;;;11.98;10.85;;;;;;;;;;5058692;28;20318;-52
2023/05/15 00:58:01;;;;;;;12.20;10.82;;;;;;;;;;5056354;28;20333;-53
2023/05/15 01:00:27;;;;;;;14.02;10.35;;;;;;;;;;5063924;28;20227;-55
2023/05/15 01:02:55;;;;;;;12.27;11.18;;;;;;;;;;5056160;28;20239;-53
2023/05/15 01:05:22;;;;;;;12.05;10.85;;;;;;;;;;5061827;28;20238;-53
2023/05/15 01:07:51;;;;;;;13.00;11.38;;;;;;;;;;5054881;28;20236;-53
2023/05/15 01:10:18;;;;;;;11.40;10.27;;;;;;;;;;5058660;28;20255;-53
2023/05/15 01:12:46;;;;;;;11.68;10.57;;;;;;;;;;5069467;28;20236;-52
2023/05/15 01:15:12;;;;;;;13.13;11.35;;;;;;;;;;5065602;28;20246;-52
2023/05/15 01:17:39;;;;;;;11.65;10.60;;;;;;;;;;5071647;28;20254;-53
2023/05/15 01:20:09;;;;;;;11.30;10.18;;;;;;;;;;5072567;28;20695;-52
2023/05/15 01:22:42;;;;;;;12.02;11.02;;;;;;;;;;5080973;28;20325;-52
2023/05/15 01:25:20;;;;;;;12.32;11.07;;;;;;;;;;5088024;28;20280;-54
2023/05/15 01:27:50;;;;;;;11.75;10.65;;;;;;;;;;5058543;28;20281;-53
2023/05/15 01:30:20;;;;;;;11.68;10.45;;;;;;;;;;5056371;28;20227;-53
2023/05/15 01:32:51;;;;;;;11.55;10.35;;;;;;;;;;5065419;28;20261;-52
2023/05/15 01:35:20;;;;;;;12.98;11.13;;;;;;;;;;5069182;28;20255;-57
2023/05/15 01:37:49;;;;;;;12.23;10.98;;;;;;;;;;5069969;28;20262;-53
2023/05/15 01:40:16;;;;;;;11.70;10.60;;;;;;;;;;5070660;28;20235;-53
2023/05/15 01:42:44;;;;;;;11.35;10.35;;;;;;;;;;5066578;28;20231;-53
2023/05/15 01:45:13;;;;;;;11.15;10.05;;;;;;;;;;5063091;28;20231;-53
2023/05/15 01:47:41;;;;;;;11.02;10.00;;;;;;;;;;5061582;28;20226;-53
2023/05/15 01:50:10;;;;;;;13.40;11.23;;;;;;;;;;5063304;28;20253;-53
2023/05/15 01:52:38;;;;;;;11.70;10.25;;;;;;;;;;5062084;28;20772;-53
2023/05/15 01:55:06;;;;;;;10.70;9.80;;;;;;;;;;5060382;28;20228;-55
2023/05/15 01:57:33;;;;;;;12.15;10.93;;;;;;;;;;5061543;28;20709;-53
2023/05/15 02:00:00;;;;;;;10.77;9.80;;;;;;;;;;5069585;28;20254;-53
2023/05/15 02:02:29;;;;;;;12.07;10.80;;;;;;;;;;5071774;28;20237;-53
2023/05/15 02:04:56;;;;;;;12.02;10.82;;;;;;;;;;5061881;28;20265;-54
2023/05/15 02:07:23;;;;;;;11.70;10.70;;;;;;;;;;5072085;28;20223;-55
2023/05/15 02:09:51;;;;;;;11.70;10.50;;;;;;;;;;5068254;27;20238;-53
2023/05/15 02:12:18;;;;;;;12.70;11.50;;;;;;;;;;5069508;28;20382;-53
2023/05/15 02:14:45;;;;;;;13.23;10.38;;;;;;;;;;5068427;28;20630;-52
2023/05/15 02:17:11;;;;;;;11.57;10.45;;;;;;;;;;5057162;28;20223;-52
2023/05/15 02:19:39;;;;;;;11.18;9.98;;;;;;;;;;5065623;28;20235;-52
2023/05/15 02:22:06;;;;;;;11.40;10.30;;;;;;;;;;5058608;28;20759;-53
2023/05/15 02:24:32;;;;;;;11.80;10.70;;;;;;;;;;5056467;28;20231;-55
2023/05/15 02:27:02;;;;;;;10.55;9.65;;;;;;;;;;5054187;28;20326;-54
2023/05/15 02:29:31;;;;;;;11.05;9.95;;;;;;;;;;5047594;28;20282;-53
2023/05/15 02:32:00;;;;;;;11.73;10.60;;;;;;;;;;5050654;28;20631;-53
2023/05/15 02:34:32;;;;;;;13.32;10.80;;;;;;;;;;5064745;28;20303;-55
2023/05/15 02:37:01;;;;;;;12.10;10.98;;;;;;;;;;5063864;28;20235;-54
2023/05/15 02:39:29;;;;;;;12.90;11.48;;;;;;;;;;5057887;28;20223;-53
2023/05/15 02:41:56;;;;;;;12.73;11.52;;;;;;;;;;5063703;28;20285;-53
2023/05/15 02:44:23;;;;;;;13.27;11.77;;;;;;;;;;5064756;28;20235;-53
2023/05/15 02:46:50;;;;;;;12.40;11.18;;;;;;;;;;5058145;28;20595;-53
2023/05/15 02:49:17;;;;;;;11.38;10.32;;;;;;;;;;5060332;28;20777;-54
2023/05/15 02:51:43;;;;;;;13.15;10.75;;;;;;;;;;5063256;28;20251;-53
2023/05/15 02:54:12;;;;;;;14.00;12.57;;;;;;;;;;5062937;28;20234;-53
2023/05/15 02:56:38;;;;;;;12.00;10.90;;;;;;;;;;5058760;28;20329;-52
2023/05/15 02:59:05;;;;;;;13.25;10.40;;;;;;;;;;5065387;28;20235;-53
2023/05/15 03:01:32;;;;;;;13.25;11.93;;;;;;;;;;5059063;28;20333;-53
2023/05/15 03:03:58;;;;;;;12.60;11.50;;;;;;;;;;5048107;28;20228;-53
2023/05/15 03:06:25;;;;;;;11.95;10.48;;;;;;;;;;5062751;28;20884;-56
2023/05/15 03:08:52;;;;;;;12.73;11.35;;;;;;;;;;5071047;28;20234;-53
2023/05/15 03:11:20;;;;;;;12.68;10.55;;;;;;;;;;5065221;28;20258;-54
2023/05/15 03:13:47;;;;;;;12.63;11.15;;;;;;;;;;5058185;28;20238;-52
2023/05/15 03:16:13;;;;;;;12.52;11.00;;;;;;;;;;5067407;28;20226;-53
2023/05/15 03:18:41;;;;;;;15.77;11.48;;;;;;;;;;5055140;28;20230;-54
2023/05/15 03:21:08;;;;;;;12.75;11.45;;;;;;;;;;5071288;28;20238;-53
2023/05/15 03:23:35;;;;;;;13.02;11.82;;;;;;;;;;5063911;28;20232;-54
2023/05/15 03:26:01;;;;;;;12.07;10.90;;;;;;;;;;5060644;28;20239;-52
2023/05/15 03:28:29;;;;;;;12.50;11.38;;;;;;;;;;5063841;28;20227;-54
2023/05/15 03:30:56;;;;;;;12.00;10.48;;;;;;;;;;5061180;28;20255;-52
2023/05/15 03:33:23;;;;;;;12.10;10.93;;;;;;;;;;5061583;28;20231;-53
2023/05/15 03:35:51;;;;;;;11.70;10.70;;;;;;;;;;5060963;28;20250;-54
2023/05/15 03:38:17;;;;;;;12.60;11.40;;;;;;;;;;5064069;28;20227;-53
2023/05/15 03:40:44;;;;;;;16.00;12.25;;;;;;;;;;5063027;28;20230;-53
2023/05/15 03:43:11;;;;;;;15.25;12.18;;;;;;;;;;5062228;28;20243;-53
2023/05/15 03:45:39;;;;;;;12.20;11.02;;;;;;;;;;5060466;28;20237;-54
2023/05/15 03:48:06;;;;;;;12.30;11.18;;;;;;;;;;5061910;28;20232;-53
2023/05/15 03:50:32;;;;;;;13.93;11.52;;;;;;;;;;5067274;28;20259;-53
2023/05/15 03:52:59;;;;;;;13.55;11.52;;;;;;;;;;5059437;28;20296;-54
2023/05/15 03:55:26;;;;;;;11.85;10.63;;;;;;;;;;5058994;28;20261;-53
2023/05/15 03:57:52;;;;;;;14.13;11.20;;;;;;;;;;5066405;28;20226;-54
2023/05/15 04:00:19;;;;;;;14.77;12.75;;;;;;;;;;5068996;28;20239;-54
2023/05/15 04:02:47;;;;;;;12.57;11.25;;;;;;;;;;5047257;28;20231;-52
2023/05/15 04:05:14;;;;;;;13.55;11.88;;;;;;;;;;5079309;28;20242;-54
2023/05/15 04:07:40;;;;;;;12.40;11.10;;;;;;;;;;5070211;28;20301;-56
2023/05/15 04:10:07;;;;;;;13.35;11.90;;;;;;;;;;5063030;28;20265;-58
2023/05/15 04:12:35;;;;;;;14.68;12.15;;;;;;;;;;5052915;28;20267;-52
2023/05/15 04:15:14;;;;;;;12.77;11.48;;;;;;;;;;5067020;28;20224;-53
2023/05/15 04:17:40;;;;;;;13.27;11.30;;;;;;;;;;5070641;28;20226;-53
2023/05/15 04:20:09;;;;;;;12.70;11.48;;;;;;;;;;5077993;28;20250;-53
2023/05/15 04:22:36;;;;;;;12.75;11.52;;;;;;;;;;5069735;28;20244;-54
2023/05/15 04:25:04;;;;;;;14.98;12.95;;;;;;;;;;5065657;28;20566;-53
2023/05/15 04:27:31;;;;;;;14.25;12.85;;;;;;;;;;5072158;28;20235;-53
2023/05/15 04:29:58;;;;;;;13.82;11.93;;;;;;;;;;5086735;28;20340;-53
2023/05/15 04:32:25;;;;;;;13.10;11.73;;;;;;;;;;5074909;28;20322;-53
2023/05/15 04:34:51;;;;;;;16.10;12.73;;;;;;;;;;5081785;28;20246;-57
2023/05/15 04:37:19;;;;;;;13.38;12.07;;;;;;;;;;5076598;28;20227;-55
2023/05/15 04:39:46;;;;;;;16.13;13.00;;;;;;;;;;5079938;28;20234;-60
2023/05/15 04:42:13;;;;;;;12.82;11.38;;;;;;;;;;5068546;28;20319;-52
2023/05/15 04:44:39;;;;;;;13.23;11.48;;;;;;;;;;5081683;28;20242;-58
2023/05/15 04:47:06;;;;;;;12.57;11.27;;;;;;;;;;5080801;28;20249;-53
2023/05/15 04:49:32;;;;;;;14.05;10.82;;;;;;;;;;5074447;28;20232;-52
2023/05/15 04:51:59;;;;;;;17.85;11.93;;;;;;;;;;5067108;28;20231;-54
2023/05/15 04:54:27;;;;;;;12.20;11.00;;;;;;;;;;5065324;28;20332;-52
2023/05/15 04:56:54;;;;;;;15.55;11.88;;;;;;;;;;5060639;28;20293;-53
2023/05/15 04:59:21;;;;;;;12.25;11.10;;;;;;;;;;5064805;28;20306;-53
2023/05/15 05:01:47;;;;;;;11.52;10.52;;;;;;;;;;5064621;27;20310;-53
2023/05/15 05:04:18;;;;;;;12.77;11.50;;;;;;;;;;5064092;28;20318;-52
2023/05/15 05:06:45;;;;;;;13.23;11.88;;;;;;;;;;5063992;28;20238;-53
2023/05/15 05:09:11;;;;;;;13.77;11.68;;;;;;;;;;5054908;28;20310;-53
2023/05/15 05:11:42;;;;;;;14.05;11.48;;;;;;;;;;5061613;28;20390;-53
2023/05/15 05:14:08;;;;;;;15.48;13.10;;;;;;;;;;5067087;28;20254;-53
2023/05/15 05:16:35;;;;;;;14.38;12.15;;;;;;;;;;5064842;28;20300;-52
2023/05/15 05:19:02;;;;;;;14.27;10.55;;;;;;;;;;5063815;28;20643;-53
2023/05/15 05:21:29;;;;;;;12.60;10.75;;;;;;;;;;5063319;28;20238;-54
2023/05/15 05:23:56;;;;;;;15.10;11.50;;;;;;;;;;5062217;27;20231;-53
2023/05/15 05:26:23;;;;;;;17.20;10.90;;;;;;;;;;5064662;28;20249;-53
2023/05/15 05:28:51;;;;;;;16.63;11.45;;;;;;;;;;5068431;28;20227;-53
2023/05/15 05:31:17;;;;;;;13.90;12.05;;;;;;;;;;5056791;28;20231;-53
2023/05/15 05:33:44;;;;;;;20.00;12.23;;;;;;;;;;5063708;28;20234;-53
2023/05/15 05:36:11;;;;;;;17.90;11.85;;;;;;;;;;5060968;28;20227;-54
2023/05/15 05:38:38;;;;;;;17.88;10.80;;;;;;;;;;5059362;28;20242;-53
2023/05/15 05:41:04;;;;;;;19.88;12.07;;;;;;;;;;5064141;28;20605;-53
2023/05/15 05:43:31;;;;;;;11.40;9.70;;;;;;;;;;5063260;27;20244;-52
2023/05/15 05:45:59;;;;;;;12.25;10.70;;;;;;;;;;5065632;28;20234;-53
2023/05/15 05:48:26;;;;;;;10.68;9.65;;;;;;;;;;5058448;28;20794;-53
2023/05/15 05:50:53;;;;;;;10.73;9.63;;;;;;;;;;5054249;28;20663;-53
2023/05/15 05:53:20;;;;;;;8.38;7.57;;;;;;;;;;5076200;28;20226;-53
2023/05/15 05:55:46;;;;;;;8.82;7.97;;;;;;;;;;5069872;28;20650;-52
2023/05/15 05:58:14;;;;;;;9.77;8.35;;;;;;;;;;5071086;27;20314;-53
2023/05/15 06:00:40;;;;;;;10.43;9.27;;;;;;;;;;5067726;27;20238;-52
2023/05/15 06:03:08;;;;;;;8.73;7.93;;;;;;;;;;5075642;28;20366;-52
2023/05/15 06:05:34;;;;;;;9.30;8.35;;;;;;;;;;5052460;28;20238;-53
2023/05/15 06:08:02;;;;;;;14.50;11.55;;;;;;;;;;5070585;28;20241;-53
2023/05/15 06:10:30;;;;;;;13.93;10.80;;;;;;;;;;5074902;28;24427;-53
2023/05/15 06:12:56;;;;;;;11.18;10.00;;;;;;;;;;5070225;28;20235;-52
2023/05/15 06:15:23;;;;;;;12.63;11.40;;;;;;;;;;5050949;28;20232;-53
2023/05/15 06:17:49;;;;;;;12.60;11.40;;;;;;;;;;5058140;28;20232;-53
2023/05/15 06:20:17;;;;;;;11.55;10.18;;;;;;;;;;5060846;28;20234;-54
2023/05/15 06:22:44;;;;;;;11.80;10.68;;;;;;;;;;5046062;28;21588;-54
2023/05/15 06:25:13;;;;;;;13.60;11.15;;;;;;;;;;5058351;28;20263;-53
2023/05/15 06:27:40;;;;;;;11.73;10.45;;;;;;;;;;5054940;28;20228;-54
2023/05/15 06:30:07;;;;;;;13.02;9.88;;;;;;;;;;5060922;28;20231;-53
2023/05/15 06:32:34;;;;;;;12.15;10.88;;;;;;;;;;5059868;28;20317;-53
2023/05/15 06:35:00;;;;;;;9.50;8.55;;;;;;;;;;5058012;28;20276;-52
2023/05/15 06:37:28;;;;;;;7.82;7.13;;;;;;;;;;5058555;28;20930;-52
2023/05/15 06:39:56;;;;;;;8.45;7.45;;;;;;;;;;5058928;28;20239;-53
2023/05/15 06:42:22;;;;;;;10.75;6.88;;;;;;;;;;5054144;28;20247;-53
2023/05/15 06:44:49;;;;;;;7.50;6.80;;;;;;;;;;5055011;28;20238;-53
2023/05/15 06:47:16;;;;;;;8.55;7.25;;;;;;;;;;5051872;28;20230;-53
2023/05/15 06:49:42;;;;;;;7.90;7.18;;;;;;;;;;5056569;28;20281;-52
2023/05/15 06:52:09;;;;;;;9.70;8.77;;;;;;;;;;5049428;28;20253;-53
2023/05/15 06:54:39;;;;;;;11.77;10.77;;;;;;;;;;5052972;28;20239;-52
2023/05/15 06:57:06;;;;;;;12.48;10.65;;;;;;;;;;5061569;28;20231;-53
2023/05/15 06:59:34;;;;;;;13.35;11.48;;;;;;;;;;5054008;28;20232;-54
2023/05/15 07:02:01;;;;;;;11.27;10.23;;;;;;;;;;5057131;28;20725;-54
2023/05/15 07:04:27;;;;;;;11.25;10.02;;;;;;;;;;5058046;28;20227;-52
2023/05/15 07:06:54;;;;;;;12.38;10.38;;;;;;;;;;5055475;28;20257;-53
2023/05/15 07:09:20;;;;;;;9.32;8.52;;;;;;;;;;5048906;28;20230;-55
2023/05/15 07:11:48;;;;;;;8.45;7.65;;;;;;;;;;5061276;28;20612;-53
2023/05/15 07:14:15;;;;;;;8.73;7.82;;;;;;;;;;5057062;27;20322;-53
2023/05/15 07:16:42;;;;;;;8.57;7.68;;;;;;;;;;5061708;28;20724;-54
2023/05/15 07:19:09;;;;;;;9.18;7.60;;;;;;;;;;5057110;28;20281;-53
2023/05/15 07:21:35;;;;;;;7.95;7.28;;;;;;;;;;5059005;28;20226;-53
2023/05/15 07:24:02;;;;;;;7.45;6.70;;;;;;;;;;5063872;28;20235;-53
2023/05/15 07:26:31;;;;;;;7.07;6.38;;;;;;;;;;5054773;28;20227;-53
2023/05/15 07:28:59;;;;;;;6.65;6.05;;;;;;;;;;5050872;28;20724;-53
2023/05/15 07:31:25;;;;;;;6.10;5.63;;;;;;;;;;5057269;28;20485;-53
2023/05/15 07:33:52;;;;;;;6.60;5.35;;;;;;;;;;5050401;28;20240;-52
2023/05/15 07:36:18;;;;;;;8.70;6.60;;;;;;;;;;5053226;28;20227;-53
2023/05/15 07:38:45;;;;;;;6.15;5.65;;;;;;;;;;5066798;28;20354;-53
2023/05/15 07:41:11;;;;;;;6.18;5.57;;;;;;;;;;5055012;28;20235;-52
2023/05/15 07:43:38;;;;;;;6.75;6.05;;;;;;;;;;5057336;28;20240;-53
2023/05/15 07:46:06;;;;;;;7.15;6.15;;;;;;;;;;5063480;28;20254;-54
2023/05/15 07:48:32;;;;;;;6.60;5.95;;;;;;;;;;5068203;28;20721;-52
2023/05/15 07:50:59;;;;;;;7.57;6.85;;;;;;;;;;5063959;28;20242;-52
2023/05/15 07:53:26;;;;;;;6.60;5.95;;;;;;;;;;5062422;28;20243;-53
2023/05/15 07:55:52;;;;;;;9.70;5.70;;;;;;;;;;5065078;28;20227;-53
2023/05/15 07:58:19;;;;;;;7.20;6.50;;;;;;;;;;5069218;28;20235;-54
2023/05/15 08:00:46;;;;;;;7.80;6.00;;;;;;;;;;5065033;28;20660;-53
2023/05/15 08:03:14;;;;;;;5.30;4.72;;;;;;;;;;5057213;28;20776;-54
2023/05/15 08:05:41;;;;;;;7.50;6.30;;;;;;;;;;5062512;28;20239;-53
2023/05/15 08:08:07;;;;;;;7.43;6.72;;;;;;;;;;5066515;28;20288;-54
2023/05/15 08:10:34;;;;;;;6.70;6.10;;;;;;;;;;5062274;28;20263;-52
2023/05/15 08:13:01;;;;;;;6.05;5.07;;;;;;;;;;5064634;28;20239;-53
2023/05/15 08:15:28;;;;;;;9.23;6.25;;;;;;;;;;5060498;28;20824;-53
2023/05/15 08:17:54;;;;;;;8.32;7.28;;;;;;;;;;5064256;28;20228;-55
2023/05/15 08:20:22;;;;;;;8.13;7.43;;;;;;;;;;5080846;28;20322;-54
2023/05/15 08:22:49;;;;;;;9.98;7.43;;;;;;;;;;5073484;28;20512;-56
2023/05/15 08:25:16;;;;;;;6.63;5.93;;;;;;;;;;5077821;28;20219;-53
2023/05/15 08:27:42;;;;;;;5.97;5.47;;;;;;;;;;5074320;28;20242;-56
2023/05/15 08:30:09;;;;;;;5.75;4.90;;;;;;;;;;5067793;28;20235;-53
2023/05/15 08:32:36;;;;;;;8.63;5.78;;;;;;;;;;5062065;28;20296;-52
2023/05/15 08:35:03;;;;;;;4.75;4.35;;;;;;;;;;5060268;28;20258;-52
2023/05/15 08:37:32;;;;;;;6.10;4.60;;;;;;;;;;5063144;28;20231;-53
2023/05/15 08:39:58;;;;;;;4.70;4.30;;;;;;;;;;5062215;28;20238;-53
2023/05/15 08:42:28;;;;;;;6.70;6.10;;;;;;;;;;5058093;28;20322;-52
2023/05/15 08:44:55;;;;;;;6.65;6.03;;;;;;;;;;5052637;28;20311;-53
2023/05/15 08:47:21;;;;;;;6.38;5.38;;;;;;;;;;5054316;28;20276;-53
2023/05/15 08:49:51;;;;;;;6.63;5.75;;;;;;;;;;5056646;28;20256;-53
2023/05/15 08:52:17;;;;;;;5.45;4.95;;;;;;;;;;5048519;28;20310;-53
2023/05/15 08:54:46;;;;;;;5.90;5.40;;;;;;;;;;5062753;28;20263;-53
2023/05/15 08:57:13;;;;;;;6.00;5.50;;;;;;;;;;5055699;28;20709;-54
2023/05/15 08:59:39;;;;;;;5.85;5.32;;;;;;;;;;5056805;28;20224;-52
2023/05/15 09:02:06;;;;;;;5.80;5.30;;;;;;;;;;5052299;28;20617;-52
2023/05/15 09:04:33;;;;;;;5.32;4.88;;;;;;;;;;5054560;28;20271;-53
2023/05/15 09:07:00;;;;;;;6.40;4.70;;;;;;;;;;5060095;28;20224;-52
2023/05/15 09:09:28;;;;;;;8.77;5.72;;;;;;;;;;5059125;28;20724;-52
2023/05/15 09:11:56;;;;;;;5.75;5.25;;;;;;;;;;5047791;28;20239;-52
2023/05/15 09:14:22;;;;;;;6.45;5.88;;;;;;;;;;5048698;28;20809;-53
2023/05/15 09:16:49;;;;;;;7.38;6.72;;;;;;;;;;5056607;28;20278;-53
2023/05/15 09:19:16;;;;;;;6.43;5.82;;;;;;;;;;5057168;28;20304;-54
2023/05/15 09:21:43;;;;;;;5.82;5.43;;;;;;;;;;5054149;28;20237;-52
2023/05/15 09:24:16;;;;;;;4.95;4.55;;;;;;;;;;5057493;28;20233;-53
2023/05/15 09:26:43;;;;;;;5.88;5.28;;;;;;;;;;5057644;28;20231;-51
2023/05/15 09:29:11;;;;;;;7.47;5.68;;;;;;;;;;5058047;28;20231;-52
2023/05/15 09:31:37;;;;;;;6.80;6.13;;;;;;;;;;5051306;28;20764;-53
2023/05/15 09:34:05;;;;;;;7.03;6.38;;;;;;;;;;5049399;28;20231;-53
2023/05/15 09:36:31;;;;;;;6.00;5.55;;;;;;;;;;5060680;28;20235;-55
2023/05/15 09:38:58;;;;;;;6.55;5.95;;;;;;;;;;5056026;28;20637;-53
2023/05/15 09:41:25;;;;;;;6.65;5.85;;;;;;;;;;5057016;28;20235;-53
2023/05/15 09:43:53;;;;;;;7.07;6.38;;;;;;;;;;5053359;28;20237;-52
2023/05/15 09:46:21;;;;;;;7.00;5.72;;;;;;;;;;5062533;28;20227;-52
2023/05/15 09:48:47;;;;;;;7.05;6.30;;;;;;;;;;5058282;28;20231;-53
2023/05/15 09:51:17;;;;;;;8.50;6.43;;;;;;;;;;5055368;28;20223;-53
2023/05/15 09:53:47;;;;;;;9.27;6.88;;;;;;;;;;5051667;28;20611;-52
2023/05/15 09:56:14;;;;;;;7.38;6.68;;;;;;;;;;5051421;28;20402;-54
2023/05/15 09:58:51;;;;;;;6.70;6.10;;;;;;;;;;5052586;28;20239;-52
2023/05/15 10:01:21;;;;;;;5.85;5.45;;;;;;;;;;5052889;28;20232;-53
2023/05/15 10:03:56;;;;;;;5.60;5.20;;;;;;;;;;5053502;28;20224;-53
2023/05/15 10:06:22;;;;;;;7.60;5.28;;;;;;;;;;5047769;28;20229;-52
2023/05/15 10:08:51;;;;;;;6.72;6.13;;;;;;;;;;5058393;28;20235;-52
2023/05/15 10:11:17;;;;;;;5.95;5.43;;;;;;;;;;5057738;28;20358;-53
2023/05/15 10:13:44;;;;;;;7.72;6.30;;;;;;;;;;5065339;28;20323;-53
2023/05/15 10:16:11;;;;;;;5.50;5.03;;;;;;;;;;5056466;28;20307;-53
2023/05/15 10:18:39;;;;;;;5.38;4.80;;;;;;;;;;5045698;28;20263;-53
2023/05/15 10:21:07;;;;;;;5.53;5.10;;;;;;;;;;5057619;28;20259;-53
2023/05/15 10:23:35;;;;;;;6.25;5.07;;;;;;;;;;5054861;28;20242;-52
2023/05/15 10:26:02;;;;;;;5.93;5.38;;;;;;;;;;5072519;28;20235;-54
2023/05/15 10:28:30;;;;;;;5.22;4.72;;;;;;;;;;5061670;28;20231;-53
2023/05/15 10:30:59;;;;;;;6.57;5.22;;;;;;;;;;5056473;28;20235;-52
2023/05/15 10:33:26;;;;;;;5.28;4.45;;;;;;;;;;5060907;28;20454;-53
2023/05/15 10:35:55;;;;;;;5.22;4.72;;;;;;;;;;5069202;28;20235;-52
2023/05/15 10:38:21;;;;;;;5.05;4.45;;;;;;;;;;5063666;28;21120;-55
2023/05/15 10:40:48;;;;;;;6.10;4.68;;;;;;;;;;5047051;28;20236;-53
2023/05/15 10:43:15;;;;;;;4.80;4.30;;;;;;;;;;5070374;28;20226;-53
2023/05/15 10:45:42;;;;;;;4.57;4.18;;;;;;;;;;5076145;28;20245;-53
2023/05/15 10:48:11;;;;;;;4.80;4.38;;;;;;;;;;5062822;28;20235;-52
2023/05/15 10:50:37;;;;;;;8.50;4.55;;;;;;;;;;5047073;28;20288;-52
2023/05/15 10:53:05;;;;;;;3.90;3.58;;;;;;;;;;5064355;28;20234;-53
2023/05/15 10:55:32;;;;;;;4.65;4.25;;;;;;;;;;5060098;28;20343;-53
2023/05/15 10:57:58;;;;;;;5.22;4.72;;;;;;;;;;5066095;28;20239;-53
2023/05/15 11:00:25;;;;;;;5.13;4.72;;;;;;;;;;5069377;28;20314;-53
2023/05/15 11:02:54;;;;;;;5.25;4.10;;;;;;;;;;5065843;28;20239;-52
2023/05/15 11:05:20;;;;;;;4.90;4.50;;;;;;;;;;5054445;28;20731;-52
2023/05/15 11:08:12;;;;;;;5.20;4.70;;;;;;;;;;5053135;28;20231;-54
2023/05/15 11:10:40;;;;;;;4.88;4.43;;;;;;;;;;5051312;28;20223;-52
2023/05/15 11:13:06;;;;;;;4.95;4.55;;;;;;;;;;5061547;27;20249;-53
2023/05/15 11:15:41;;;;;;;4.30;3.90;;;;;;;;;;5058408;28;20233;-53
2023/05/15 11:18:07;;;;;;;5.03;3.92;;;;;;;;;;5056769;28;20226;-52
2023/05/15 11:20:37;;;;;;;4.38;3.97;;;;;;;;;;5061424;28;20226;-52
2023/05/15 11:23:03;;;;;;;4.80;4.40;;;;;;;;;;5066260;28;20231;-51
2023/05/15 11:25:31;;;;;;;4.40;4.00;;;;;;;;;;5059113;27;20227;-53
2023/05/15 11:27:58;;;;;;;4.47;4.10;;;;;;;;;;5066615;28;20239;-54
2023/05/15 11:30:34;;;;;;;4.78;4.30;;;;;;;;;;5070591;28;20238;-52
2023/05/15 11:33:02;;;;;;;4.72;3.72;;;;;;;;;;5069266;28;20646;-54
2023/05/15 11:35:29;;;;;;;6.78;4.63;;;;;;;;;;5074061;28;20222;-52
2023/05/15 11:37:57;;;;;;;5.20;4.70;;;;;;;;;;5077646;28;20234;-51
2023/05/15 11:40:24;;;;;;;6.53;5.90;;;;;;;;;;5061724;28;20234;-51
2023/05/15 11:43:05;;;;;;;5.85;5.30;;;;;;;;;;5065077;28;20338;-55
2023/05/15 11:45:33;;;;;;;5.10;4.35;;;;;;;;;;5050310;28;20315;-53
2023/05/15 11:48:03;;;;;;;9.55;4.55;;;;;;;;;;5053511;28;20236;-54
2023/05/15 11:50:30;;;;;;;4.63;4.22;;;;;;;;;;5067180;28;20531;-52
2023/05/15 11:52:57;;;;;;;5.32;4.82;;;;;;;;;;5064134;28;20243;-52
2023/05/15 11:55:25;;;;;;;5.03;4.63;;;;;;;;;;5061881;28;20219;-51
2023/05/15 11:57:51;;;;;;;4.68;4.32;;;;;;;;;;5053699;28;20319;-57
2023/05/15 12:00:19;;;;;;;5.93;5.43;;;;;;;;;;5058209;28;20242;-52
2023/05/15 12:02:46;;;;;;;6.35;4.35;;;;;;;;;;5067155;28;20238;-52
2023/05/15 12:05:12;;;;;;;4.03;3.63;;;;;;;;;;5061145;28;20242;-52
2023/05/15 12:07:40;;;;;;;4.57;4.28;;;;;;;;;;5060733;28;20322;-52
2023/05/15 12:10:09;;;;;;;5.18;4.35;;;;;;;;;;5063127;28;20317;-53
2023/05/15 12:12:36;;;;;;;4.10;3.70;;;;;;;;;;5065466;28;20617;-54
2023/05/15 12:15:04;;;;;;;4.70;4.28;;;;;;;;;;5062628;28;20228;-53
2023/05/15 12:17:32;;;;;;;4.38;4.00;;;;;;;;;;5070927;28;20659;-55
2023/05/15 12:19:59;;;;;;;4.03;3.63;;;;;;;;;;5068917;28;20246;-52
2023/05/15 12:22:26;;;;;;;16.35;4.93;;;;;;;;;;5070122;28;20270;-53
2023/05/15 12:24:52;;;;;;;6.15;4.38;;;;;;;;;;5073171;28;20327;-53
2023/05/15 12:27:18;;;;;;;3.53;3.22;;;;;;;;;;5060932;28;20712;-53
2023/05/15 12:29:45;;;;;;;3.70;3.17;;;;;;;;;;5064929;28;20235;-52
2023/05/15 12:32:11;;;;;;;3.53;3.22;;;;;;;;;;5061145;28;20247;-51
2023/05/15 12:34:39;;;;;;;2.72;2.53;;;;;;;;;;5061414;28;20369;-53
2023/05/15 12:37:06;;;;;;;3.83;3.20;;;;;;;;;;5061989;28;20257;-52
2023/05/15 12:39:32;;;;;;;3.10;2.90;;;;;;;;;;5060778;28;20231;-53
2023/05/15 12:41:59;;;;;;;2.88;2.67;;;;;;;;;;5063885;28;20242;-55
2023/05/15 12:44:25;;;;;;;3.80;2.90;;;;;;;;;;5056762;28;20263;-54
2023/05/15 12:46:53;;;;;;;2.50;2.28;;;;;;;;;;5062052;28;20230;-52
2023/05/15 12:49:23;;;;;;;2.25;2.15;;;;;;;;;;5054265;28;20234;-56
2023/05/15 12:51:50;;;;;;;3.28;2.35;;;;;;;;;;5065494;28;20299;-53
2023/05/15 12:54:18;;;;;;;3.95;2.63;;;;;;;;;;5063810;28;20244;-52
2023/05/15 12:56:44;;;;;;;3.65;3.42;;;;;;;;;;5062041;28;20238;-53
2023/05/15 12:59:11;;;;;;;2.22;2.03;;;;;;;;;;5068831;28;20255;-55
2023/05/15 13:01:37;;;;;;;2.55;2.35;;;;;;;;;;5059860;28;20292;-53
2023/05/15 13:04:03;;;;;;;2.42;2.28;;;;;;;;;;5055144;28;20436;-53
2023/05/15 13:06:30;;;;;;;2.53;2.33;;;;;;;;;;5056914;28;20847;-53
2023/05/15 13:08:58;;;;;;;2.90;2.60;;;;;;;;;;5060608;28;20234;-53
2023/05/15 13:11:30;;;;;;;3.92;2.53;;;;;;;;;;5064563;28;20235;-52
2023/05/15 13:13:56;;;;;;;2.95;2.65;;;;;;;;;;5057976;28;20265;-54
2023/05/15 13:16:24;;;;;;;4.63;3.00;;;;;;;;;;5061476;28;20231;-53
2023/05/15 13:18:50;;;;;;;5.68;2.78;;;;;;;;;;5057068;28;20238;-53
2023/05/15 13:21:17;;;;;;;3.97;3.20;;;;;;;;;;5047183;28;20250;-54
2023/05/15 13:23:43;;;;;;;3.28;2.67;;;;;;;;;;5052995;28;20323;-53
2023/05/15 13:26:11;;;;;;;2.38;2.28;;;;;;;;;;5052799;28;20769;-54
2023/05/15 13:28:37;;;;;;;9.45;3.45;;;;;;;;;;5073636;28;21629;-53
2023/05/15 13:31:04;;;;;;;3.13;2.85;;;;;;;;;;5067509;28;20238;-53
2023/05/15 13:33:30;;;;;;;2.50;2.30;;;;;;;;;;5059378;28;20615;-52
2023/05/15 13:35:57;;;;;;;3.08;2.88;;;;;;;;;;5075036;28;20254;-55
2023/05/15 13:38:23;;;;;;;3.20;2.90;;;;;;;;;;5075408;28;20655;-52
2023/05/15 13:40:50;;;;;;;3.58;2.83;;;;;;;;;;5070476;28;20713;-54
2023/05/15 13:43:17;;;;;;;8.77;2.72;;;;;;;;;;5047637;28;20227;-53
2023/05/15 13:45:44;;;;;;;3.65;2.38;;;;;;;;;;5045113;28;20232;-53
2023/05/15 13:48:10;;;;;;;5.32;2.30;;;;;;;;;;5044888;28;20320;-54
2023/05/15 13:50:37;;;;;;;11.23;2.40;;;;;;;;;;5044438;28;20320;-54
2023/05/15 13:53:03;;;;;;;6.63;2.08;;;;;;;;;;5051985;28;20467;-52
2023/05/15 13:55:30;;;;;;;4.88;1.98;;;;;;;;;;5059097;28;20740;-52
2023/05/15 13:57:56;;;;;;;2.42;1.98;;;;;;;;;;5060864;28;20235;-54
2023/05/15 14:00:24;;;;;;;2.08;1.98;;;;;;;;;;5056001;28;20257;-53
2023/05/15 14:02:50;;;;;;;3.45;2.00;;;;;;;;;;5064243;28;20241;-53
2023/05/15 14:05:17;;;;;;;3.20;2.20;;;;;;;;;;5049187;28;20318;-54
2023/05/15 14:07:44;;;;;;;4.05;2.45;;;;;;;;;;5064199;28;20317;-54
2023/05/15 14:10:10;;;;;;;3.10;1.92;;;;;;;;;;5060928;28;20231;-53
2023/05/15 14:12:37;;;;;;;1.70;1.60;;;;;;;;;;5058562;28;20321;-53
2023/05/15 14:15:04;;;;;;;4.32;2.30;;;;;;;;;;5050610;27;20314;-54
2023/05/15 14:17:31;;;;;;;3.10;2.80;;;;;;;;;;5072192;28;20259;-53
2023/05/15 14:19:58;;;;;;;2.60;2.40;;;;;;;;;;5056633;28;20236;-53
2023/05/15 14:22:24;;;;;;;3.40;2.60;;;;;;;;;;5061153;28;20235;-53
2023/05/15 14:24:51;;;;;;;3.10;2.80;;;;;;;;;;5051153;28;20238;-52
2023/05/15 14:27:17;;;;;;;3.40;3.10;;;;;;;;;;5069262;28;20226;-52
2023/05/15 14:29:44;;;;;;;2.60;2.40;;;;;;;;;;5059507;28;20660;-53
2023/05/15 14:32:11;;;;;;;3.15;2.88;;;;;;;;;;5065707;28;20344;-53